Time;durP1;ratioP1;P1;durP2;ratioP2;P2;SDS_P1;SDS_P2;PMS_P1;PMS_P2;Temp;Humidity;BMP_temperature;BMP_pressure;BME280_temperature;BME280_humidity;BME280_pressure;Samples;Min_cycle;Max_cycle;Signal;HPM_P1;HPM_P2
2022/05/08 00:00:06;;;;;;;0.20;0.20;;;18.10;66.50;;;;;;4210350;28;20059;-65
2022/05/08 00:02:40;;;;;;;0.00;0.00;;;18.10;66.40;;;;;;4210784;28;20544;-65
2022/05/08 00:05:02;;;;;;;0.00;0.00;;;18.10;66.20;;;;;;4210601;28;20083;-65
2022/05/08 00:07:25;;;;;;;0.00;0.00;;;18.10;65.90;;;;;;4211339;28;20055;-65
2022/05/08 00:09:48;;;;;;;0.10;0.10;;;18.00;67.10;;;;;;4211401;28;20050;-65
2022/05/08 00:12:12;;;;;;;0.65;0.65;;;18.10;66.40;;;;;;4211258;28;20071;-65
2022/05/08 00:14:33;;;;;;;0.05;0.05;;;18.00;66.50;;;;;;4210410;28;20060;-65
2022/05/08 00:16:55;;;;;;;0.00;0.00;;;18.00;66.40;;;;;;4211395;28;20407;-62
2022/05/08 00:19:19;;;;;;;0.00;0.00;;;18.00;66.50;;;;;;4210467;28;20166;-62
2022/05/08 00:21:41;;;;;;;0.10;0.10;;;18.00;66.30;;;;;;4210870;28;20517;-62
2022/05/08 00:24:04;;;;;;;0.00;0.00;;;18.00;65.90;;;;;;4211247;28;20056;-62
2022/05/08 00:26:26;;;;;;;0.00;0.00;;;18.00;66.30;;;;;;4209697;28;20048;-62
2022/05/08 00:28:50;;;;;;;1.40;0.80;;;18.00;65.70;;;;;;4210677;28;20073;-63
2022/05/08 00:31:12;;;;;;;0.55;0.50;;;17.90;65.80;;;;;;4210824;28;20055;-62
2022/05/08 00:33:34;;;;;;;6.22;1.40;;;17.90;65.60;;;;;;4211067;28;20105;-62
2022/05/08 00:35:58;;;;;;;0.00;0.00;;;17.90;65.90;;;;;;4211146;28;20054;-62
2022/05/08 00:38:19;;;;;;;0.00;0.00;;;17.90;66.10;;;;;;4210383;28;20085;-62
2022/05/08 00:40:42;;;;;;;0.55;0.55;;;17.90;66.10;;;;;;4209764;28;20056;-62
2022/05/08 00:43:27;;;;;;;0.00;0.00;;;17.90;66.30;;;;;;4210637;28;20112;-62
2022/05/08 00:45:49;;;;;;;0.08;0.08;;;17.90;66.30;;;;;;4210891;28;20039;-62
2022/05/08 00:48:11;;;;;;;0.10;0.10;;;17.90;66.30;;;;;;4210603;28;20570;-62
2022/05/08 00:50:33;;;;;;;0.10;0.10;;;17.90;66.40;;;;;;4210708;28;20075;-62
2022/05/08 00:52:56;;;;;;;0.00;0.00;;;17.90;66.50;;;;;;4210338;28;20044;-62
2022/05/08 00:55:18;;;;;;;0.00;0.00;;;17.90;66.50;;;;;;4210679;28;20123;-63
2022/05/08 00:57:42;;;;;;;0.20;0.20;;;17.80;66.40;;;;;;4210127;28;20135;-62
2022/05/08 01:00:06;;;;;;;0.10;0.10;;;17.80;66.10;;;;;;4210651;28;20048;-62
2022/05/08 01:02:31;;;;;;;0.10;0.10;;;17.80;66.20;;;;;;4210299;28;20056;-65
2022/05/08 01:04:54;;;;;;;0.00;0.00;;;17.80;66.20;;;;;;4210217;28;20059;-63
2022/05/08 01:07:16;;;;;;;0.00;0.00;;;17.80;66.30;;;;;;4209678;28;20486;-63
2022/05/08 01:09:40;;;;;;;0.10;0.10;;;17.80;66.40;;;;;;4210726;28;20398;-62
2022/05/08 01:12:04;;;;;;;0.63;0.63;;;17.80;66.50;;;;;;4210002;28;20047;-62
2022/05/08 01:14:26;;;;;;;0.20;0.20;;;17.80;66.50;;;;;;4209499;28;20113;-62
2022/05/08 01:16:50;;;;;;;0.35;0.35;;;17.80;66.40;;;;;;4210208;28;20403;-62
2022/05/08 01:19:12;;;;;;;0.00;0.00;;;17.80;66.50;;;;;;4210060;28;20093;-62
2022/05/08 01:21:39;;;;;;;0.00;0.00;;;17.80;66.50;;;;;;4208678;28;20066;-62
2022/05/08 01:24:01;;;;;;;15.88;2.28;;;17.80;66.60;;;;;;4209555;28;20224;-63
2022/05/08 01:26:23;;;;;;;0.10;0.10;;;17.80;66.50;;;;;;4209258;28;20056;-61
2022/05/08 01:28:45;;;;;;;0.00;0.00;;;17.80;66.50;;;;;;4209492;28;20044;-63
2022/05/08 01:31:08;;;;;;;0.17;0.17;;;17.80;66.60;;;;;;4208511;28;20449;-63
2022/05/08 01:33:31;;;;;;;0.00;0.00;;;17.80;66.60;;;;;;4209336;28;20497;-63
2022/05/08 01:35:53;;;;;;;0.00;0.00;;;17.80;66.60;;;;;;4210068;28;20607;-62
2022/05/08 01:38:18;;;;;;;0.00;0.00;;;17.80;66.60;;;;;;4208596;28;20068;-63
2022/05/08 01:40:41;;;;;;;0.00;0.00;;;17.80;66.60;;;;;;4209508;28;20795;-62
2022/05/08 01:43:04;;;;;;;0.00;0.00;;;17.80;66.60;;;;;;4209739;28;20051;-62
2022/05/08 01:45:26;;;;;;;0.00;0.00;;;17.80;66.60;;;;;;4210049;28;20129;-62
2022/05/08 01:50:28;;;;;;;0.00;0.00;;;17.80;66.70;;;;;;4209782;28;20500;-63
2022/05/08 01:52:50;;;;;;;0.00;0.00;;;17.80;66.60;;;;;;4209393;28;20052;-61
2022/05/08 01:55:13;;;;;;;0.00;0.00;;;17.80;66.60;;;;;;4209659;28;20051;-62
2022/05/08 01:57:35;;;;;;;0.15;0.15;;;17.80;66.70;;;;;;4208852;28;20052;-61
2022/05/08 01:59:57;;;;;;;0.00;0.00;;;17.70;66.60;;;;;;4208890;28;20036;-62
2022/05/08 02:02:20;;;;;;;0.08;0.08;;;17.70;66.60;;;;;;4209018;28;20410;-62
2022/05/08 02:04:42;;;;;;;6.50;2.10;;;17.70;66.60;;;;;;4208829;28;20482;-62
2022/05/08 02:07:05;;;;;;;0.00;0.00;;;17.70;66.60;;;;;;4209397;28;20132;-62
2022/05/08 02:09:27;;;;;;;0.13;0.13;;;17.70;66.60;;;;;;4209347;28;20080;-62
2022/05/08 02:11:52;;;;;;;0.00;0.00;;;17.70;66.60;;;;;;4208092;28;20127;-62
2022/05/08 02:14:17;;;;;;;0.00;0.00;;;17.70;66.60;;;;;;4208514;28;20633;-63
2022/05/08 02:16:39;;;;;;;0.00;0.00;;;17.70;66.50;;;;;;4209289;28;20408;-62
2022/05/08 02:19:01;;;;;;;0.57;0.22;;;17.70;66.50;;;;;;4209342;28;20383;-63
2022/05/08 02:21:23;;;;;;;0.00;0.00;;;17.70;66.50;;;;;;4209188;28;20059;-63
2022/05/08 02:23:45;;;;;;;0.20;0.20;;;17.70;66.50;;;;;;4209289;28;20101;-62
2022/05/08 02:26:07;;;;;;;0.85;0.85;;;17.70;66.50;;;;;;4208287;28;20040;-62
2022/05/08 02:28:31;;;;;;;1.15;0.90;;;17.70;66.40;;;;;;4209455;28;20125;-62
2022/05/08 02:30:54;;;;;;;0.00;0.00;;;17.70;66.40;;;;;;4209057;28;20051;-62
2022/05/08 02:33:17;;;;;;;0.00;0.00;;;17.70;66.40;;;;;;4208671;28;20077;-63
2022/05/08 02:35:40;;;;;;;0.00;0.00;;;17.70;66.50;;;;;;4208747;28;20044;-62
2022/05/08 02:38:01;;;;;;;0.55;0.55;;;17.60;66.40;;;;;;4209259;28;20441;-63
2022/05/08 02:40:24;;;;;;;0.00;0.00;;;17.60;66.40;;;;;;4207455;28;20151;-63
2022/05/08 02:42:46;;;;;;;0.00;0.00;;;17.60;66.50;;;;;;4207858;28;20183;-63
2022/05/08 02:45:11;;;;;;;0.00;0.00;;;17.60;66.50;;;;;;4208503;28;20156;-63
2022/05/08 02:47:36;;;;;;;0.00;0.00;;;17.60;66.60;;;;;;4207493;28;20044;-63
2022/05/08 02:49:58;;;;;;;0.00;0.00;;;17.60;66.60;;;;;;4208938;28;20410;-63
2022/05/08 02:52:20;;;;;;;0.10;0.10;;;17.60;66.70;;;;;;4208500;28;20434;-63
2022/05/08 02:54:42;;;;;;;0.10;0.10;;;17.60;66.70;;;;;;4208836;28;20151;-62
2022/05/08 02:59:44;;;;;;;0.00;0.00;;;17.50;66.70;;;;;;4208668;28;20052;-63
2022/05/08 03:02:11;;;;;;;0.13;0.13;;;17.50;66.70;;;;;;4208800;28;20072;-63
2022/05/08 03:04:33;;;;;;;0.00;0.00;;;17.50;66.80;;;;;;4190758;28;20098;-63
2022/05/08 03:06:56;;;;;;;0.00;0.00;;;17.50;66.80;;;;;;4191829;28;20047;-63
2022/05/08 03:09:18;;;;;;;0.20;0.20;;;17.50;66.80;;;;;;4191516;28;20059;-63
2022/05/08 03:11:40;;;;;;;0.00;0.00;;;17.50;66.80;;;;;;4197778;28;20101;-63
2022/05/08 03:14:02;;;;;;;0.00;0.00;;;17.50;66.80;;;;;;4208664;28;20044;-63
2022/05/08 03:16:26;;;;;;;0.10;0.10;;;17.50;66.90;;;;;;4209004;28;20055;-63
2022/05/08 03:18:49;;;;;;;0.00;0.00;;;17.50;66.90;;;;;;4209087;28;20134;-63
2022/05/08 03:21:12;;;;;;;0.00;0.00;;;17.50;66.90;;;;;;4208589;28;20085;-63
2022/05/08 03:23:35;;;;;;;0.08;0.08;;;17.40;66.80;;;;;;4208770;28;20082;-63
2022/05/08 03:25:56;;;;;;;0.00;0.00;;;17.40;66.90;;;;;;4206506;28;20093;-62
2022/05/08 03:28:19;;;;;;;0.00;0.00;;;17.40;66.90;;;;;;4208620;28;20566;-63
2022/05/08 03:30:41;;;;;;;0.00;0.00;;;17.40;66.90;;;;;;4208271;28;20046;-63
2022/05/08 03:33:03;;;;;;;0.00;0.00;;;17.40;66.90;;;;;;4208851;28;20064;-63
2022/05/08 03:35:27;;;;;;;0.00;0.00;;;17.40;66.90;;;;;;4208394;28;20048;-63
2022/05/08 03:37:49;;;;;;;0.00;0.00;;;17.40;67.00;;;;;;4208274;28;20387;-63
2022/05/08 03:40:12;;;;;;;0.13;0.13;;;17.40;66.90;;;;;;4208295;28;20048;-63
2022/05/08 03:42:33;;;;;;;30.88;1.50;;;17.40;66.90;;;;;;4208920;28;20140;-62
2022/05/08 03:44:55;;;;;;;0.00;0.00;;;17.30;66.90;;;;;;4205715;28;20040;-62
2022/05/08 03:47:17;;;;;;;0.00;0.00;;;17.40;67.00;;;;;;4211335;28;20828;-63
2022/05/08 03:49:40;;;;;;;0.00;0.00;;;17.30;66.80;;;;;;4210799;28;20048;-63
2022/05/08 03:52:04;;;;;;;0.57;0.57;;;17.30;66.90;;;;;;4211787;28;20058;-62
2022/05/08 03:54:26;;;;;;;0.00;0.00;;;17.30;66.90;;;;;;4211388;28;20062;-64
2022/05/08 03:56:48;;;;;;;0.00;0.00;;;17.30;67.00;;;;;;4211810;28;20143;-64
2022/05/08 03:59:10;;;;;;;0.32;0.22;;;17.30;67.00;;;;;;4211412;28;20135;-63
2022/05/08 04:01:32;;;;;;;0.00;0.00;;;17.30;67.00;;;;;;4211542;28;20403;-64
2022/05/08 04:03:55;;;;;;;0.00;0.00;;;17.30;67.10;;;;;;4211324;28;20047;-64
2022/05/08 04:06:17;;;;;;;0.10;0.10;;;17.30;67.00;;;;;;4209773;28;20051;-62
2022/05/08 04:08:40;;;;;;;0.00;0.00;;;17.30;67.00;;;;;;4210163;28;20062;-62
2022/05/08 04:11:03;;;;;;;0.10;0.10;;;17.30;67.10;;;;;;4211223;28;20134;-62
2022/05/08 04:13:25;;;;;;;0.00;0.00;;;17.30;67.10;;;;;;4211363;28;20469;-63
2022/05/08 04:18:27;;;;;;;0.00;0.00;;;17.20;67.00;;;;;;4208923;28;20052;-62
2022/05/08 04:20:49;;;;;;;0.05;0.05;;;17.20;66.90;;;;;;4211149;28;20051;-63
2022/05/08 04:25:53;;;;;;;0.00;0.00;;;17.30;66.90;;;;;;4211099;28;20043;-62
2022/05/08 04:28:16;;;;;;;0.20;0.20;;;17.30;66.90;;;;;;4210365;28;20044;-62
2022/05/08 04:30:38;;;;;;;0.00;0.00;;;17.20;66.80;;;;;;4209842;28;20410;-63
2022/05/08 04:33:00;;;;;;;0.00;0.00;;;17.20;66.70;;;;;;4211088;28;20059;-63
2022/05/08 04:35:22;;;;;;;0.20;0.20;;;17.30;66.70;;;;;;4211054;28;20732;-62
2022/05/08 04:37:45;;;;;;;0.00;0.00;;;17.20;66.60;;;;;;4210636;28;20054;-62
2022/05/08 04:40:09;;;;;;;0.00;0.00;;;17.30;66.60;;;;;;4210828;28;20574;-62
2022/05/08 04:42:33;;;;;;;0.00;0.00;;;17.20;66.50;;;;;;4210011;28;20174;-63
2022/05/08 04:44:55;;;;;;;0.00;0.00;;;17.30;66.40;;;;;;4210831;28;20052;-62
2022/05/08 04:47:17;;;;;;;0.00;0.00;;;17.20;66.40;;;;;;4210892;28;20044;-64
2022/05/08 04:49:39;;;;;;;0.00;0.00;;;17.20;66.30;;;;;;4209972;28;20144;-64
2022/05/08 04:52:01;;;;;;;0.00;0.00;;;17.20;66.30;;;;;;4210632;28;20048;-63
2022/05/08 04:54:24;;;;;;;0.00;0.00;;;17.30;66.40;;;;;;4208416;28;20973;-63
2022/05/08 04:56:46;;;;;;;0.00;0.00;;;17.30;66.30;;;;;;4209544;28;20052;-64
2022/05/08 04:59:09;;;;;;;0.22;0.22;;;17.20;66.30;;;;;;4210395;28;20101;-63
2022/05/08 05:01:31;;;;;;;5.47;1.40;;;17.30;66.30;;;;;;4210490;28;20067;-63
2022/05/08 05:03:54;;;;;;;0.00;0.00;;;17.30;66.20;;;;;;4209736;28;20048;-63
2022/05/08 05:06:19;;;;;;;0.00;0.00;;;17.30;66.20;;;;;;4210425;28;20047;-63
2022/05/08 05:08:41;;;;;;;0.00;0.00;;;17.30;66.10;;;;;;4211007;28;20056;-63
2022/05/08 05:11:08;;;;;;;0.95;0.95;;;17.30;66.10;;;;;;4209681;28;20133;-63
2022/05/08 05:13:30;;;;;;;0.00;0.00;;;17.30;66.00;;;;;;4210269;28;20097;-64
2022/05/08 05:15:53;;;;;;;0.00;0.00;;;17.30;65.90;;;;;;4210196;28;20062;-63
2022/05/08 05:18:16;;;;;;;0.00;0.00;;;17.30;65.90;;;;;;4209697;28;20395;-63
2022/05/08 05:20:38;;;;;;;0.10;0.10;;;17.30;65.80;;;;;;4210317;28;20518;-63
2022/05/08 05:23:01;;;;;;;0.10;0.10;;;17.40;65.70;;;;;;4210322;28;20043;-63
2022/05/08 05:25:23;;;;;;;0.00;0.00;;;17.40;65.10;;;;;;4210039;28;20394;-63
2022/05/08 05:27:45;;;;;;;0.00;0.00;;;17.40;65.30;;;;;;4209669;28;20201;-63
2022/05/08 05:30:09;;;;;;;0.00;0.00;;;17.40;64.60;;;;;;4209688;28;20048;-64
2022/05/08 05:32:32;;;;;;;0.00;0.00;;;17.40;64.60;;;;;;4210125;28;20518;-64
2022/05/08 05:34:54;;;;;;;2.92;0.93;;;17.40;64.60;;;;;;4212528;28;20052;-66
2022/05/08 05:37:17;;;;;;;0.00;0.00;;;17.40;65.10;;;;;;4208273;28;20089;-64
2022/05/08 05:39:39;;;;;;;1.45;1.17;;;17.40;65.10;;;;;;4210071;28;20471;-64
2022/05/08 05:42:01;;;;;;;0.00;0.00;;;17.40;65.40;;;;;;4209374;28;20048;-64
2022/05/08 05:44:23;;;;;;;0.00;0.00;;;17.40;65.50;;;;;;4202060;28;20234;-64
2022/05/08 05:49:27;;;;;;;0.00;0.00;;;17.40;65.00;;;;;;4193170;28;20197;-69
2022/05/08 05:51:49;;;;;;;0.00;0.00;;;17.40;63.30;;;;;;4199260;28;20122;-67
2022/05/08 05:54:12;;;;;;;3.30;1.85;;;17.40;63.80;;;;;;4209881;28;20040;-65
2022/05/08 05:56:35;;;;;;;0.00;0.00;;;17.40;64.00;;;;;;4210151;28;20052;-65
2022/05/08 05:58:57;;;;;;;0.00;0.00;;;17.40;64.20;;;;;;4209374;28;20051;-65
2022/05/08 06:01:19;;;;;;;0.65;0.65;;;17.40;63.60;;;;;;4196443;28;20047;-65
2022/05/08 06:03:42;;;;;;;0.10;0.10;;;17.40;63.20;;;;;;4203154;28;20121;-65
2022/05/08 06:06:06;;;;;;;0.00;0.00;;;17.40;63.40;;;;;;4192014;28;20117;-65
2022/05/08 06:08:28;;;;;;;0.00;0.00;;;17.40;62.30;;;;;;4206751;28;20052;-65
2022/05/08 06:10:50;;;;;;;0.73;0.73;;;17.40;61.20;;;;;;4209016;28;20146;-65
2022/05/08 06:13:13;;;;;;;0.00;0.00;;;17.30;60.40;;;;;;4209582;28;20048;-65
2022/05/08 06:15:35;;;;;;;0.00;0.00;;;17.30;60.70;;;;;;4209469;28;20048;-65
2022/05/08 06:17:57;;;;;;;0.00;0.00;;;17.30;61.60;;;;;;4209740;28;20441;-65
2022/05/08 06:20:19;;;;;;;7.28;3.50;;;17.30;60.40;;;;;;4208370;28;20040;-65
2022/05/08 06:22:44;;;;;;;0.45;0.45;;;17.30;61.80;;;;;;4209256;28;20046;-65
2022/05/08 06:25:06;;;;;;;0.00;0.00;;;17.30;59.90;;;;;;4206370;28;20059;-63
2022/05/08 06:27:28;;;;;;;0.00;0.00;;;17.30;59.90;;;;;;4209592;28;20055;-65
2022/05/08 06:29:50;;;;;;;0.00;0.00;;;17.30;59.70;;;;;;4209122;28;20140;-65
2022/05/08 06:32:12;;;;;;;0.00;0.00;;;17.30;59.00;;;;;;4208994;28;20052;-65
2022/05/08 06:34:35;;;;;;;0.08;0.08;;;17.30;59.20;;;;;;4200666;28;20051;-65
2022/05/08 06:36:57;;;;;;;0.00;0.00;;;17.30;59.80;;;;;;4209470;28;20051;-65
2022/05/08 06:39:21;;;;;;;0.00;0.00;;;17.30;60.20;;;;;;4209244;28;20189;-66
2022/05/08 06:41:43;;;;;;;0.00;0.00;;;17.30;59.10;;;;;;4207581;28;20074;-65
2022/05/08 06:44:06;;;;;;;0.45;0.45;;;17.20;58.40;;;;;;4208371;28;20055;-65
2022/05/08 06:46:31;;;;;;;0.08;0.08;;;17.30;59.10;;;;;;4208999;28;20548;-64
2022/05/08 06:48:53;;;;;;;0.00;0.00;;;17.20;59.90;;;;;;4208851;28;20054;-64
2022/05/08 06:51:15;;;;;;;0.00;0.00;;;17.30;58.30;;;;;;4208963;28;20040;-65
2022/05/08 06:53:38;;;;;;;0.20;0.20;;;17.40;58.70;;;;;;4208331;28;20500;-66
2022/05/08 06:56:01;;;;;;;0.00;0.00;;;17.40;57.20;;;;;;4208343;28;20518;-66
2022/05/08 06:58:24;;;;;;;0.00;0.00;;;17.40;56.80;;;;;;4207392;28;20077;-66
2022/05/08 07:03:26;;;;;;;0.52;0.52;;;17.50;55.70;;;;;;4208645;28;20101;-63
2022/05/08 07:05:48;;;;;;;0.10;0.10;;;17.50;56.60;;;;;;4208194;28;20563;-65
2022/05/08 07:08:10;;;;;;;0.00;0.00;;;17.60;56.50;;;;;;4204093;28;20044;-65
2022/05/08 07:10:32;;;;;;;1.65;1.55;;;17.60;56.70;;;;;;4192568;28;20809;-65
2022/05/08 07:12:56;;;;;;;0.30;0.30;;;17.70;56.80;;;;;;4194301;28;20115;-65
2022/05/08 07:15:18;;;;;;;0.00;0.00;;;17.80;56.50;;;;;;4207623;28;20097;-64
2022/05/08 07:17:49;;;;;;;0.00;0.00;;;17.80;56.80;;;;;;4208574;28;20055;-65
2022/05/08 07:20:11;;;;;;;0.10;0.10;;;17.80;55.80;;;;;;4192451;28;20419;-64
2022/05/08 07:22:35;;;;;;;0.13;0.13;;;17.80;56.10;;;;;;4195501;28;20064;-64
2022/05/08 07:24:57;;;;;;;2.80;1.67;;;17.90;57.40;;;;;;4205328;28;20101;-65
2022/05/08 07:27:19;;;;;;;0.00;0.00;;;17.90;56.40;;;;;;4212070;28;20126;-64
2022/05/08 07:29:44;;;;;;;0.00;0.00;;;17.90;56.00;;;;;;4211802;28;20054;-65
2022/05/08 07:32:06;;;;;;;0.00;0.00;;;17.90;55.00;;;;;;4210052;28;20044;-65
2022/05/08 07:37:13;;;;;;;0.75;0.75;;;18.00;54.40;;;;;;4211274;28;20051;-65
2022/05/08 07:39:35;;;;;;;0.00;0.00;;;18.00;54.50;;;;;;4210697;28;20062;-65
2022/05/08 07:41:58;;;;;;;0.10;0.10;;;18.00;55.00;;;;;;4211802;28;20040;-65
2022/05/08 07:44:20;;;;;;;0.47;0.47;;;18.10;54.10;;;;;;4211443;28;20414;-65
2022/05/08 07:46:44;;;;;;;0.00;0.00;;;18.10;54.10;;;;;;4208366;28;20123;-65
2022/05/08 07:49:08;;;;;;;0.00;0.00;;;18.10;54.20;;;;;;4211447;28;20054;-64
2022/05/08 07:51:31;;;;;;;0.00;0.00;;;18.10;54.00;;;;;;4210111;28;20490;-64
2022/05/08 07:53:52;;;;;;;0.00;0.00;;;18.00;53.90;;;;;;4210070;28;20125;-65
2022/05/08 07:56:15;;;;;;;0.00;0.00;;;18.10;53.90;;;;;;4211517;28;20040;-64
2022/05/08 07:58:37;;;;;;;0.00;0.00;;;18.10;54.40;;;;;;4211435;28;20808;-65
2022/05/08 08:01:03;;;;;;;1.00;1.00;;;18.10;54.30;;;;;;4210736;28;20097;-65
2022/05/08 08:03:29;;;;;;;0.93;0.88;;;18.10;54.40;;;;;;4211566;28;20063;-64
2022/05/08 08:05:52;;;;;;;0.63;0.63;;;18.10;53.90;;;;;;4194140;28;20419;-67
2022/05/08 08:08:31;;;;;;;5.75;5.25;;;18.10;55.50;;;;;;4200947;28;20048;-64
2022/05/08 08:10:56;;;;;;;18.83;9.95;;;18.00;55.10;;;;;;4211642;28;20059;-64
2022/05/08 08:13:18;;;;;;;3.55;2.65;;;18.10;56.40;;;;;;4209808;28;20060;-64
2022/05/08 08:15:44;;;;;;;4.65;4.30;;;18.10;55.50;;;;;;4194321;28;20549;-65
2022/05/08 08:18:07;;;;;;;7.22;5.63;;;18.10;54.80;;;;;;4193919;28;20052;-64
2022/05/08 08:20:31;;;;;;;3.92;3.72;;;18.10;55.40;;;;;;4194493;28;20045;-65
2022/05/08 08:22:54;;;;;;;5.30;4.88;;;18.10;54.50;;;;;;4194138;28;20036;-65
2022/05/08 08:25:16;;;;;;;3.10;2.72;;;18.00;54.80;;;;;;4194284;28;20056;-65
2022/05/08 08:27:39;;;;;;;1.92;1.60;;;18.00;54.60;;;;;;4194291;28;20044;-65
2022/05/08 08:30:03;;;;;;;11.90;4.75;;;18.00;55.10;;;;;;4194208;28;20579;-66
2022/05/08 08:32:25;;;;;;;1.52;1.48;;;18.00;55.30;;;;;;4194076;28;20079;-67
2022/05/08 08:34:47;;;;;;;3.10;2.33;;;18.00;55.40;;;;;;4192401;28;20524;-67
2022/05/08 08:37:10;;;;;;;1.08;1.08;;;18.00;55.40;;;;;;4194076;28;20495;-67
2022/05/08 08:39:32;;;;;;;0.63;0.63;;;18.00;55.50;;;;;;4193950;28;20056;-67
2022/05/08 08:42:09;;;;;;;1.77;1.55;;;18.10;55.00;;;;;;4194254;28;20053;-67
2022/05/08 08:49:53;;;;;;;2.08;1.38;;;18.20;54.90;;;;;;4210438;28;20148;-67
2022/05/08 08:52:17;;;;;;;3.17;1.40;;;18.20;55.10;;;;;;4208853;28;20056;-66
2022/05/08 08:54:39;;;;;;;2.28;1.35;;;18.20;54.70;;;;;;4209983;28;20387;-67
2022/05/08 08:57:01;;;;;;;3.40;1.23;;;18.20;54.40;;;;;;4193730;28;20045;-66
2022/05/08 08:59:25;;;;;;;0.57;0.57;;;18.30;54.30;;;;;;4193990;28;20787;-65
2022/05/08 09:01:47;;;;;;;3.03;1.73;;;18.30;53.60;;;;;;4194406;28;20098;-66
2022/05/08 09:04:10;;;;;;;2.30;2.20;;;18.30;53.30;;;;;;4196510;28;20407;-65
2022/05/08 09:06:39;;;;;;;1.30;1.30;;;18.30;53.10;;;;;;4210275;28;20143;-65
2022/05/08 09:09:22;;;;;;;0.90;0.55;;;18.30;53.30;;;;;;4199470;28;20055;-66
2022/05/08 09:11:44;;;;;;;0.40;0.40;;;18.40;53.50;;;;;;4194143;28;20436;-66
2022/05/08 09:14:06;;;;;;;0.20;0.20;;;18.40;53.50;;;;;;4209105;28;20133;-66
2022/05/08 09:16:28;;;;;;;0.40;0.40;;;18.40;53.90;;;;;;4210215;28;20067;-66
2022/05/08 09:18:50;;;;;;;0.10;0.10;;;18.40;52.90;;;;;;4208551;28;20063;-66
2022/05/08 09:24:12;;;;;;;0.30;0.30;;;18.40;53.80;;;;;;4210907;28;20097;-66
2022/05/08 09:26:34;;;;;;;0.00;0.00;;;18.50;53.60;;;;;;4209968;28;20051;-68
2022/05/08 09:28:56;;;;;;;0.55;0.55;;;18.40;52.90;;;;;;4210471;28;20078;-67
2022/05/08 09:31:19;;;;;;;0.17;0.17;;;18.50;52.50;;;;;;4194331;28;20059;-66
2022/05/08 09:33:43;;;;;;;2.30;1.80;;;18.50;52.50;;;;;;4210286;28;20051;-67
2022/05/08 09:36:07;;;;;;;0.60;0.60;;;18.50;53.10;;;;;;4209642;28;20055;-67
2022/05/08 09:38:50;;;;;;;2.55;0.45;;;18.50;52.80;;;;;;4208485;28;20219;-67
2022/05/08 09:41:14;;;;;;;2.47;1.92;;;18.50;52.50;;;;;;4208514;28;20086;-68
2022/05/08 09:43:37;;;;;;;0.10;0.10;;;18.50;52.80;;;;;;4209053;28;20090;-67
2022/05/08 09:46:00;;;;;;;0.00;0.00;;;18.60;52.30;;;;;;4209526;28;20051;-67
2022/05/08 09:48:23;;;;;;;0.00;0.00;;;18.50;53.00;;;;;;4209460;28;20093;-67
2022/05/08 09:50:47;;;;;;;0.10;0.05;;;18.60;52.90;;;;;;4209363;28;20055;-67
2022/05/08 09:53:09;;;;;;;0.20;0.20;;;18.60;52.20;;;;;;4208908;28;20048;-67
2022/05/08 09:55:32;;;;;;;0.25;0.25;;;18.60;52.10;;;;;;4209631;28;20048;-67
2022/05/08 09:57:55;;;;;;;0.00;0.00;;;18.70;52.00;;;;;;4209655;28;20056;-67
2022/05/08 10:00:17;;;;;;;0.32;0.32;;;18.70;52.10;;;;;;4208274;28;20922;-67
2022/05/08 10:02:43;;;;;;;1.10;1.10;;;18.70;52.60;;;;;;4209298;28;20142;-67
2022/05/08 10:05:08;;;;;;;4.38;2.50;;;18.70;52.80;;;;;;4206690;28;20044;-67
2022/05/08 10:07:31;;;;;;;1.48;1.38;;;18.70;52.90;;;;;;4209380;28;20060;-67
2022/05/08 10:15:37;;;;;;;0.00;0.00;;;18.70;51.70;;;;;;4159491;28;20053;-67
2022/05/08 10:18:24;;;;;;;0.00;0.00;;;18.80;51.60;;;;;;4173564;28;20087;-68
2022/05/08 10:21:04;;;;;;;0.00;0.00;;;18.80;50.90;;;;;;4196566;28;20131;-67
2022/05/08 10:23:37;;;;;;;0.80;0.80;;;18.80;51.50;;;;;;4206694;28;20040;-67
2022/05/08 10:26:14;;;;;;;1.85;1.13;;;18.80;52.10;;;;;;4208505;28;20446;-67
2022/05/08 10:29:11;;;;;;;0.15;0.15;;;18.80;52.50;;;;;;4208976;28;20193;-68
2022/05/08 10:31:50;;;;;;;0.00;0.00;;;18.80;50.30;;;;;;4206374;28;20105;-68
2022/05/08 10:34:13;;;;;;;0.00;0.00;;;18.70;51.80;;;;;;4208359;28;20123;-68
2022/05/08 10:36:36;;;;;;;0.65;0.65;;;18.70;52.00;;;;;;4208542;28;20517;-67
2022/05/08 10:39:32;;;;;;;1.13;1.02;;;18.80;52.60;;;;;;4209550;28;20052;-67
2022/05/08 10:41:53;;;;;;;0.00;0.00;;;18.80;53.10;;;;;;4207232;28;20091;-67
2022/05/08 10:44:34;;;;;;;0.10;0.10;;;18.80;53.30;;;;;;4208767;28;20050;-67
2022/05/08 10:47:41;;;;;;;0.83;0.83;;;18.80;54.40;;;;;;4209191;28;20098;-67
2022/05/08 10:50:06;;;;;;;1.08;1.08;;;18.80;53.80;;;;;;4208857;28;20343;-68
2022/05/08 10:52:29;;;;;;;0.70;0.70;;;18.80;53.40;;;;;;4209006;28;20079;-67
2022/05/08 10:54:58;;;;;;;0.05;0.05;;;18.90;52.90;;;;;;4208353;28;20507;-66
2022/05/08 10:57:29;;;;;;;0.00;0.00;;;18.90;53.10;;;;;;4208577;28;20051;-66
2022/05/08 10:59:51;;;;;;;;;;;18.90;52.70;;;;;;4208823;28;20097;-66
2022/05/08 11:02:15;;;;;;;0.30;0.30;;;18.90;52.10;;;;;;4208414;28;19926;-66
2022/05/08 11:04:51;;;;;;;0.00;0.00;;;18.90;52.50;;;;;;4208669;28;20097;-67
2022/05/08 11:07:14;;;;;;;0.00;0.00;;;18.90;52.50;;;;;;4208372;28;20457;-67
2022/05/08 11:09:38;;;;;;;0.00;0.00;;;18.90;51.80;;;;;;4207133;28;20054;-66
2022/05/08 11:12:05;;;;;;;2.33;0.47;;;18.90;51.70;;;;;;4208249;28;20044;-66
2022/05/08 11:14:28;;;;;;;0.00;0.00;;;18.90;52.00;;;;;;4206071;28;20609;-66
2022/05/08 11:16:51;;;;;;;0.00;0.00;;;18.90;52.20;;;;;;4208738;28;20048;-66
2022/05/08 11:19:14;;;;;;;1.48;1.38;;;18.90;52.00;;;;;;4208578;28;20060;-66
2022/05/08 11:21:37;;;;;;;0.00;0.00;;;18.90;51.30;;;;;;4192477;28;20047;-66
2022/05/08 11:24:00;;;;;;;0.00;0.00;;;18.90;51.30;;;;;;4208019;28;20048;-67
2022/05/08 11:26:29;;;;;;;0.00;0.00;;;18.90;51.60;;;;;;4207539;28;20048;-66
2022/05/08 11:28:55;;;;;;;0.22;0.22;;;18.90;51.40;;;;;;4208461;28;20510;-67
2022/05/08 11:31:19;;;;;;;0.00;0.00;;;18.90;51.50;;;;;;4206664;28;20151;-67
2022/05/08 11:36:26;;;;;;;0.05;0.05;;;19.00;52.20;;;;;;4208121;28;20097;-66
2022/05/08 11:38:52;;;;;;;0.00;0.00;;;19.00;51.20;;;;;;4205951;28;20063;-66
2022/05/08 11:41:16;;;;;;;0.00;0.00;;;18.90;51.50;;;;;;4207448;28;20101;-67
2022/05/08 11:43:42;;;;;;;0.00;0.00;;;18.90;51.50;;;;;;4207718;28;20063;-67
2022/05/08 11:46:05;;;;;;;0.43;0.43;;;19.00;51.10;;;;;;4207612;28;20056;-67
2022/05/08 11:48:33;;;;;;;0.00;0.00;;;18.90;51.20;;;;;;4206425;28;20104;-67
2022/05/08 11:50:55;;;;;;;0.00;0.00;;;19.00;52.80;;;;;;4208218;28;20536;-67
2022/05/08 11:53:19;;;;;;;0.20;0.20;;;19.00;52.70;;;;;;4206410;28;20052;-67
2022/05/08 11:55:45;;;;;;;0.20;0.20;;;19.00;52.60;;;;;;4207479;28;20040;-67
2022/05/08 11:58:07;;;;;;;0.00;0.00;;;19.00;52.90;;;;;;4207130;28;20050;-67
2022/05/08 12:00:32;;;;;;;0.00;0.00;;;19.00;51.90;;;;;;4206518;28;20044;-67
2022/05/08 12:02:54;;;;;;;1.20;0.73;;;19.00;51.80;;;;;;4205732;28;20078;-67
2022/05/08 12:05:18;;;;;;;0.10;0.10;;;19.00;52.40;;;;;;4206743;28;20048;-67
2022/05/08 12:07:41;;;;;;;0.20;0.20;;;19.10;53.10;;;;;;4210460;28;20051;-68
2022/05/08 12:10:06;;;;;;;0.10;0.10;;;19.10;53.20;;;;;;4210517;28;20051;-67
2022/05/08 12:12:30;;;;;;;0.00;0.00;;;19.10;53.00;;;;;;4211492;28;20062;-68
2022/05/08 12:14:52;;;;;;;0.00;0.00;;;19.10;52.30;;;;;;4211111;28;20069;-67
2022/05/08 12:17:14;;;;;;;0.28;0.28;;;19.10;52.10;;;;;;4206127;28;20054;-68
2022/05/08 12:19:37;;;;;;;4.63;0.52;;;19.10;52.50;;;;;;4217923;28;20430;-67
2022/05/08 12:22:16;;;;;;;0.00;0.00;;;19.10;51.70;;;;;;4210502;28;20056;-67
2022/05/08 12:24:39;;;;;;;0.00;0.00;;;19.10;52.30;;;;;;4209898;28;20566;-67
2022/05/08 12:27:02;;;;;;;0.00;0.00;;;19.10;52.30;;;;;;4210724;28;20150;-66
2022/05/08 12:29:25;;;;;;;0.10;0.10;;;19.10;52.30;;;;;;4210099;28;20398;-67
2022/05/08 12:31:47;;;;;;;0.00;0.00;;;19.20;51.90;;;;;;4210603;28;20398;-66
2022/05/08 12:34:11;;;;;;;0.05;0.05;;;19.20;52.00;;;;;;4210114;28;20055;-66
2022/05/08 12:36:33;;;;;;;0.00;0.00;;;19.20;51.50;;;;;;4209835;28;20437;-66
2022/05/08 12:38:55;;;;;;;0.03;0.03;;;19.20;52.10;;;;;;4210671;28;20052;-66
2022/05/08 12:41:17;;;;;;;0.82;0.32;;;19.20;52.40;;;;;;4210719;28;20105;-67
2022/05/08 12:43:41;;;;;;;0.00;0.00;;;19.20;52.30;;;;;;4208879;28;20044;-66
2022/05/08 12:46:03;;;;;;;0.00;0.00;;;19.20;51.30;;;;;;4210563;28;20101;-67
2022/05/08 12:48:25;;;;;;;0.98;0.45;;;19.20;52.20;;;;;;4210601;28;20058;-67
2022/05/08 12:50:48;;;;;;;0.47;0.47;;;19.20;51.40;;;;;;4210819;28;20059;-67
2022/05/08 12:53:10;;;;;;;0.00;0.00;;;19.20;51.80;;;;;;4210566;28;20143;-67
2022/05/08 12:55:32;;;;;;;0.15;0.15;;;19.20;52.00;;;;;;4209571;28;20060;-67
2022/05/08 13:00:35;;;;;;;0.30;0.30;;;19.20;51.90;;;;;;4207067;28;20494;-67
2022/05/08 13:02:57;;;;;;;0.00;0.00;;;19.20;51.40;;;;;;4210448;28;20071;-67
2022/05/08 13:05:19;;;;;;;0.00;0.00;;;19.20;50.90;;;;;;4210284;28;20478;-66
2022/05/08 13:07:42;;;;;;;0.00;0.00;;;19.20;51.80;;;;;;4210258;28;20074;-66